Time;durP1;ratioP1;P1;durP2;ratioP2;P2;SDS_P1;SDS_P2;PMS_P1;PMS_P2;Temp;Humidity;BMP_temperature;BMP_pressure;BME280_temperature;BME280_humidity;BME280_pressure;Samples;Min_cycle;Max_cycle;Signal;HPM_P1;HPM_P2
2023/03/12 00:00:28;;;;;;;4.95;3.08;;;;;;;15.09;73.64;100130.84;4997727;28;20024;-85
2023/03/12 00:02:54;;;;;;;5.85;2.42;;;;;;;15.13;74.13;100140.59;4997543;28;20070;-87
2023/03/12 00:05:21;;;;;;;4.78;2.80;;;;;;;15.11;73.78;100153.69;4991811;28;20738;-86
2023/03/12 00:07:47;;;;;;;3.00;2.70;;;;;;;15.18;74.17;100165.31;5004044;28;20042;-86
2023/03/12 00:10:13;;;;;;;3.55;2.53;;;;;;;15.16;74.28;100167.88;4990535;28;20026;-86
2023/03/12 00:12:39;;;;;;;3.50;3.00;;;;;;;14.98;74.57;100149.00;4991463;28;20509;-86
2023/03/12 00:15:06;;;;;;;2.97;2.67;;;;;;;14.80;74.24;100120.50;5011482;28;20108;-86
2023/03/12 00:17:31;;;;;;;3.13;2.63;;;;;;;14.87;74.64;100135.56;5012398;28;20038;-85
2023/03/12 00:19:57;;;;;;;4.07;2.40;;;;;;;14.97;74.38;100153.38;4991713;28;20402;-85
2023/03/12 00:22:24;;;;;;;3.78;2.83;;;;;;;15.13;75.12;100177.41;5001623;28;20037;-86
2023/03/12 00:24:54;;;;;;;3.03;2.42;;;;;;;15.14;74.99;100174.84;5011574;28;20502;-85
2023/03/12 00:27:21;;;;;;;4.30;2.45;;;;;;;15.11;74.56;100179.13;4990328;28;20495;-85
2023/03/12 00:29:46;;;;;;;;;;;;;;;15.12;74.88;100180.91;4990807;28;20026;-85
2023/03/12 00:32:12;;;;;;;3.10;2.22;;;;;;;14.58;74.23;100098.91;5019490;28;19914;-85
2023/03/12 00:34:37;;;;;;;4.45;2.45;;;;;;;14.94;74.12;100166.41;5005243;28;20426;-85
2023/03/12 00:37:03;;;;;;;3.83;2.47;;;;;;;14.91;73.95;100163.72;4995927;28;20553;-85
2023/03/12 00:39:29;;;;;;;2.72;2.40;;;;;;;14.92;73.98;100165.50;5022545;28;20030;-85
2023/03/12 00:41:54;;;;;;;3.22;2.70;;;;;;;14.84;74.32;100156.53;5006482;28;20034;-85
2023/03/12 00:44:20;;;;;;;4.43;2.60;;;;;;;14.95;74.39;100170.84;4993488;28;20030;-85
2023/03/12 00:46:45;;;;;;;2.67;2.47;;;;;;;14.61;74.64;100116.50;5005980;28;20045;-85
2023/03/12 00:49:11;;;;;;;2.70;2.00;;;;;;;14.90;74.14;100185.63;5025590;28;20022;-85
2023/03/12 00:51:37;;;;;;;5.07;2.60;;;;;;;14.92;73.99;100189.19;5013441;28;20029;-86
2023/03/12 00:54:03;;;;;;;3.35;2.42;;;;;;;14.82;74.39;100189.78;5013698;28;20018;-86
2023/03/12 00:56:29;;;;;;;3.70;2.33;;;;;;;15.00;73.91;100215.66;5011977;28;20069;-86
2023/03/12 00:58:55;;;;;;;2.55;2.35;;;;;;;15.01;74.26;100207.81;5014923;28;20026;-86
2023/03/12 01:01:21;;;;;;;2.78;2.38;;;;;;;14.75;74.00;100174.66;5015704;28;20044;-87
2023/03/12 01:03:46;;;;;;;4.95;2.50;;;;;;;14.73;74.04;100168.47;5008696;28;20068;-86
2023/03/12 01:06:12;;;;;;;2.97;2.45;;;;;;;14.95;74.45;100204.13;5019684;28;20030;-87
2023/03/12 01:08:38;;;;;;;3.00;2.40;;;;;;;14.97;74.86;100213.84;5020094;28;20038;-86
2023/03/12 01:11:04;;;;;;;2.40;2.20;;;;;;;14.96;74.18;100217.28;4996895;28;20030;-87
2023/03/12 01:13:30;;;;;;;4.20;2.70;;;;;;;14.92;74.84;100209.28;4996912;28;20104;-86
2023/03/12 01:15:56;;;;;;;3.47;2.20;;;;;;;14.77;74.51;100181.72;5010849;28;20434;-86
2023/03/12 01:18:21;;;;;;;4.43;2.28;;;;;;;14.83;74.16;100196.78;5031228;28;20025;-86
2023/03/12 01:20:47;;;;;;;2.53;2.03;;;;;;;14.77;73.69;100183.47;5021259;28;20093;-86
2023/03/12 01:23:13;;;;;;;4.80;2.33;;;;;;;14.77;73.99;100200.13;5027233;28;20033;-86
2023/03/12 01:25:39;;;;;;;3.28;2.30;;;;;;;14.90;74.44;100219.78;4996698;28;20068;-86
2023/03/12 01:28:05;;;;;;;3.38;2.10;;;;;;;14.85;74.06;100214.38;5005642;28;20026;-86
2023/03/12 01:30:31;;;;;;;2.30;2.10;;;;;;;14.48;74.14;100152.00;5015319;28;20036;-85
2023/03/12 01:32:57;;;;;;;5.90;2.40;;;;;;;14.82;73.70;100211.69;5019549;28;20033;-85
2023/03/12 01:35:23;;;;;;;2.28;2.08;;;;;;;14.86;73.61;100217.91;5019977;28;20030;-86
2023/03/12 01:37:48;;;;;;;2.35;2.15;;;;;;;14.65;73.17;100198.06;4987078;28;20461;-86
2023/03/12 01:40:16;;;;;;;4.00;2.15;;;;;;;14.78;73.51;100215.06;5023142;28;20053;-86
2023/03/12 01:42:42;;;;;;;3.08;2.20;;;;;;;14.83;73.52;100226.59;5013583;28;20121;-86
2023/03/12 01:45:45;;;;;;;2.83;2.20;;;;;;;14.80;73.38;100241.41;5025679;28;20113;-86
2023/03/12 01:48:11;;;;;;;4.70;2.30;;;;;;;14.70;73.31;100226.22;5025138;28;20049;-86
2023/03/12 01:50:37;;;;;;;4.97;2.60;;;;;;;14.70;73.20;100229.72;5015425;28;20082;-86
2023/03/12 01:53:03;;;;;;;3.55;2.28;;;;;;;14.69;73.23;100238.47;5015843;28;20029;-84
2023/03/12 01:55:28;;;;;;;3.08;2.20;;;;;;;14.65;73.64;100242.75;5015052;28;20028;-84
2023/03/12 01:57:56;;;;;;;4.28;2.10;;;;;;;14.43;73.49;100214.00;5015405;28;20044;-84
2023/03/12 02:00:24;;;;;;;2.35;2.10;;;;;;;14.58;73.83;100243.41;5014430;28;20026;-84
2023/03/12 02:02:51;;;;;;;2.90;2.20;;;;;;;14.47;73.91;100229.03;5015446;28;20039;-87
2023/03/12 02:05:26;;;;;;;2.47;2.00;;;;;;;14.75;73.65;100285.03;5002531;28;20171;-87
2023/03/12 02:07:52;;;;;;;4.20;2.00;;;;;;;14.61;73.77;100264.50;5018802;28;20030;-87
2023/03/12 02:10:18;;;;;;;4.55;2.00;;;;;;;14.72;73.34;100287.59;4995977;28;20029;-87
2023/03/12 02:12:43;;;;;;;;;;;;;;;14.70;73.12;100297.16;5009328;28;20042;-87
2023/03/12 02:15:09;;;;;;;2.60;2.05;;;;;;;14.54;72.64;100251.09;5020785;28;19932;-87
2023/03/12 02:17:36;;;;;;;;;;;;;;;14.74;73.40;100292.03;5012013;28;20041;-87
2023/03/12 02:20:15;;;;;;;3.67;2.10;;;;;;;14.66;73.43;100283.94;5021160;28;19917;-87
2023/03/12 02:22:45;;;;;;;3.45;2.38;;;;;;;14.66;73.45;100291.81;5015430;28;20058;-87
2023/03/12 02:25:13;;;;;;;4.22;2.40;;;;;;;14.59;72.85;100299.47;5003656;28;20033;-86
2023/03/12 02:27:39;;;;;;;4.40;2.30;;;;;;;14.48;72.66;100290.31;5029776;28;20032;-87
2023/03/12 02:30:07;;;;;;;3.47;2.10;;;;;;;14.45;72.75;100293.75;5015116;28;20045;-87
2023/03/12 02:32:35;;;;;;;3.00;1.90;;;;;;;14.52;72.40;100302.72;5014854;28;20048;-87
2023/03/12 02:35:02;;;;;;;2.95;2.00;;;;;;;14.53;72.34;100322.91;5020546;28;20037;-87
2023/03/12 02:37:28;;;;;;;3.35;1.90;;;;;;;14.57;72.84;100335.31;5007871;28;20045;-88
2023/03/12 02:40:09;;;;;;;4.07;2.10;;;;;;;14.52;73.01;100329.91;5022630;28;20089;-87
2023/03/12 02:42:34;;;;;;;2.78;2.05;;;;;;;14.48;72.81;100328.03;5027226;28;20045;-87
2023/03/12 02:45:01;;;;;;;3.80;2.08;;;;;;;14.48;73.13;100330.66;4998195;28;20569;-87
2023/03/12 02:47:26;;;;;;;;;;;;;;;14.63;73.01;100353.91;5011981;28;20038;-87
2023/03/12 02:49:52;;;;;;;2.40;1.67;;;;;;;14.45;73.25;100323.53;5008497;28;19921;-86
2023/03/12 02:52:17;;;;;;;2.20;2.00;;;;;;;14.32;72.87;100321.38;5010642;28;20403;-86
2023/03/12 02:54:43;;;;;;;2.17;1.98;;;;;;;14.39;72.94;100333.88;5002257;28;20053;-86
2023/03/12 02:57:08;;;;;;;3.55;2.10;;;;;;;14.22;73.48;100312.34;4993733;28;20029;-86
2023/03/12 02:59:34;;;;;;;3.08;1.77;;;;;;;14.30;73.61;100346.72;5004565;28;20502;-86
2023/03/12 03:02:00;;;;;;;3.83;2.00;;;;;;;14.55;72.88;100398.34;5007492;28;20034;-88
2023/03/12 03:04:27;;;;;;;2.92;2.05;;;;;;;14.53;73.38;100399.97;5011907;28;20042;-89
2023/03/12 03:06:53;;;;;;;3.15;1.98;;;;;;;14.38;73.42;100387.25;5004893;28;20033;-90
2023/03/12 03:09:21;;;;;;;2.65;1.92;;;;;;;13.90;73.34;100308.66;5026800;28;20033;-88
2023/03/12 03:11:47;;;;;;;2.85;2.10;;;;;;;14.36;73.31;100388.03;4983024;28;20462;-87
2023/03/12 03:14:13;;;;;;;3.20;1.77;;;;;;;14.45;73.47;100409.34;5010037;28;20018;-88
2023/03/12 03:16:39;;;;;;;3.15;2.03;;;;;;;14.48;73.23;100413.81;5016103;28;20030;-89
2023/03/12 03:19:04;;;;;;;3.65;2.30;;;;;;;14.40;72.98;100417.09;4994125;28;20046;-88
2023/03/12 03:21:30;;;;;;;4.55;2.28;;;;;;;14.43;73.25;100421.53;4992624;28;20041;-85
2023/03/12 03:23:56;;;;;;;3.95;2.10;;;;;;;14.38;73.41;100403.00;4992312;28;20097;-85
2023/03/12 03:26:23;;;;;;;2.95;2.38;;;;;;;14.42;73.78;100423.28;4983332;28;20022;-86
2023/03/12 03:28:49;;;;;;;2.20;2.00;;;;;;;14.39;73.56;100410.06;5005306;28;20037;-86
2023/03/12 03:31:15;;;;;;;3.33;2.10;;;;;;;14.35;73.69;100420.41;5015529;28;20499;-88
2023/03/12 03:33:41;;;;;;;3.22;1.90;;;;;;;14.46;73.83;100440.06;4994531;28;20050;-87
2023/03/12 03:36:08;;;;;;;2.30;2.10;;;;;;;14.31;73.64;100434.25;4996665;28;20037;-88
2023/03/12 03:38:34;;;;;;;3.80;2.13;;;;;;;14.38;73.40;100444.16;5007563;28;20034;-87
2023/03/12 03:41:00;;;;;;;2.55;2.30;;;;;;;14.37;73.55;100442.34;4996673;28;20018;-88
2023/03/12 03:43:26;;;;;;;3.72;2.13;;;;;;;14.14;73.41;100410.06;5010777;28;20053;-87
2023/03/12 03:46:00;;;;;;;3.00;1.85;;;;;;;14.33;73.25;100451.88;4994151;28;20061;-88
2023/03/12 03:48:27;;;;;;;3.75;2.10;;;;;;;14.30;73.57;100449.13;4993307;28;20490;-87
2023/03/12 03:50:53;;;;;;;3.95;1.83;;;;;;;14.13;73.27;100432.81;5011885;28;20459;-87
2023/03/12 03:53:19;;;;;;;2.90;2.20;;;;;;;14.36;73.56;100477.34;5008464;28;20030;-88
2023/03/12 03:55:45;;;;;;;3.80;2.00;;;;;;;14.36;73.64;100480.88;5002122;28;20034;-88
2023/03/12 03:58:12;;;;;;;2.55;2.00;;;;;;;14.36;73.46;100490.50;4991790;28;20053;-88
2023/03/12 04:00:37;;;;;;;;;;;;;;;14.36;73.91;100485.25;4991676;28;20096;-88
2023/03/12 04:03:03;;;;;;;1.98;1.73;;;;;;;14.17;73.67;100473.22;5003451;28;19921;-87
2023/03/12 04:05:29;;;;;;;2.42;2.10;;;;;;;13.93;73.76;100434.75;5006770;28;20030;-87
2023/03/12 04:07:55;;;;;;;5.13;2.20;;;;;;;13.95;73.39;100461.03;4991921;28;20030;-88
2023/03/12 04:10:22;;;;;;;2.55;2.10;;;;;;;14.29;73.11;100530.50;4979238;28;20488;-87
2023/03/12 04:12:49;;;;;;;2.97;2.00;;;;;;;13.81;73.17;100447.44;4988561;28;20030;-87
2023/03/12 04:15:14;;;;;;;;;;;;;;;14.34;73.52;100531.56;5010348;28;20034;-85
2023/03/12 04:17:40;;;;;;;2.45;2.00;;;;;;;14.08;73.49;100496.53;5013047;28;20319;-86
2023/03/12 04:20:07;;;;;;;3.13;1.95;;;;;;;13.79;73.51;100450.00;5010495;28;20038;-88
2023/03/12 04:22:33;;;;;;;2.40;2.20;;;;;;;14.09;73.80;100507.06;5006732;28;20507;-87
2023/03/12 04:24:58;;;;;;;3.08;2.15;;;;;;;14.10;73.87;100505.34;5015113;28;20084;-87
2023/03/12 04:27:24;;;;;;;2.85;1.80;;;;;;;14.03;73.46;100520.88;5007006;28;20170;-88
2023/03/12 04:29:50;;;;;;;3.15;2.00;;;;;;;13.97;73.57;100496.13;5016632;28;20507;-87
2023/03/12 04:32:15;;;;;;;2.70;2.00;;;;;;;14.13;73.69;100536.97;5008128;28;20080;-88
2023/03/12 04:34:41;;;;;;;2.47;2.00;;;;;;;14.11;73.46;100543.88;5009336;28;20050;-88
2023/03/12 04:37:07;;;;;;;2.20;2.00;;;;;;;14.12;73.75;100550.91;4992608;28;20033;-87
2023/03/12 04:39:33;;;;;;;2.42;2.05;;;;;;;14.16;73.79;100558.97;4981134;28;20041;-87
2023/03/12 04:41:58;;;;;;;2.95;2.28;;;;;;;14.18;73.69;100559.00;4988409;28;20030;-86
2023/03/12 04:44:24;;;;;;;2.17;1.98;;;;;;;14.18;73.85;100561.63;4999466;28;20036;-87
2023/03/12 04:46:50;;;;;;;2.03;1.75;;;;;;;13.89;73.58;100521.22;4998119;28;20407;-87
2023/03/12 04:49:16;;;;;;;2.92;2.05;;;;;;;13.91;73.43;100516.94;5006844;28;20515;-87
2023/03/12 04:51:41;;;;;;;3.95;1.83;;;;;;;14.08;73.67;100565.69;5005147;28;20040;-87
2023/03/12 04:54:07;;;;;;;2.20;2.00;;;;;;;13.96;73.82;100554.72;5001964;28;20087;-87
2023/03/12 04:56:32;;;;;;;2.35;1.80;;;;;;;13.95;73.71;100552.91;5003439;28;20104;-87
2023/03/12 04:58:58;;;;;;;2.75;2.10;;;;;;;14.04;73.71;100577.78;5006768;28;20549;-87
2023/03/12 05:01:26;;;;;;;2.85;2.25;;;;;;;14.12;73.54;100595.56;5008573;28;20503;-87
2023/03/12 05:03:53;;;;;;;2.67;2.00;;;;;;;14.12;73.69;100600.81;5006965;28;20038;-87
2023/03/12 05:06:19;;;;;;;3.15;2.42;;;;;;;13.97;73.61;100591.53;4990118;28;20022;-87
2023/03/12 05:08:45;;;;;;;2.47;1.92;;;;;;;13.79;73.72;100559.34;5007900;28;20029;-87
2023/03/12 05:11:11;;;;;;;;;;;;;;;14.11;73.83;100614.78;4989688;28;20491;-86
2023/03/12 05:13:37;;;;;;;3.08;2.00;;;;;;;13.94;74.16;100611.53;4998137;28;19924;-88
2023/03/12 05:16:03;;;;;;;2.70;2.10;;;;;;;13.70;73.71;100580.00;4984558;28;20026;-88
2023/03/12 05:18:29;;;;;;;2.60;2.40;;;;;;;14.03;73.55;100641.66;5000132;28;20538;-88
2023/03/12 05:21:02;;;;;;;2.40;2.05;;;;;;;13.93;73.83;100618.50;5004322;28;20117;-88
2023/03/12 05:23:29;;;;;;;2.38;2.00;;;;;;;13.99;73.54;100642.38;5007488;28;20037;-88
2023/03/12 05:25:54;;;;;;;;;;;;;;;14.02;73.79;100645.09;4994254;28;20038;-89
2023/03/12 05:28:21;;;;;;;2.15;1.95;;;;;;;13.89;73.80;100637.59;5003014;28;19921;-90
2023/03/12 05:30:47;;;;;;;2.95;2.08;;;;;;;13.65;73.98;100595.53;5005354;28;20032;-87
2023/03/12 05:33:12;;;;;;;2.80;1.90;;;;;;;13.69;73.76;100610.56;5001641;28;20030;-88
2023/03/12 05:35:38;;;;;;;3.45;2.33;;;;;;;13.83;73.72;100646.13;5028744;28;20064;-88
2023/03/12 05:38:04;;;;;;;2.40;2.10;;;;;;;13.70;73.65;100619.38;5022496;28;20444;-88
2023/03/12 05:40:30;;;;;;;2.15;1.95;;;;;;;13.91;73.94;100664.81;5015006;28;20060;-87
2023/03/12 05:42:56;;;;;;;3.58;2.30;;;;;;;13.96;73.82;100672.84;5013935;28;20033;-89
2023/03/12 05:45:22;;;;;;;3.22;2.20;;;;;;;13.67;73.63;100638.47;5011722;28;20400;-89
2023/03/12 05:47:48;;;;;;;2.95;2.13;;;;;;;13.72;73.09;100660.56;5013730;28;20112;-89
2023/03/12 05:50:15;;;;;;;2.55;1.90;;;;;;;13.90;73.25;100691.88;4996750;28;20048;-88
2023/03/12 05:52:41;;;;;;;3.00;1.73;;;;;;;13.92;73.58;100710.31;5006331;28;20456;-89
2023/03/12 05:55:07;;;;;;;2.28;2.08;;;;;;;13.84;73.14;100695.19;5020023;28;20069;-89
2023/03/12 05:57:33;;;;;;;;;;;;;;;13.88;73.38;100711.94;5014141;28;20049;-89
2023/03/12 05:59:58;;;;;;;2.20;2.00;;;;;;;13.87;73.60;100711.88;5028299;28;20402;-88
2023/03/12 06:02:42;;;;;;;2.63;2.30;;;;;;;13.87;73.09;100723.28;5009029;28;20140;-89
2023/03/12 06:05:09;;;;;;;2.28;2.08;;;;;;;13.88;73.56;100732.94;5023564;28;20037;-88
2023/03/12 06:07:35;;;;;;;2.17;1.98;;;;;;;13.76;73.70;100712.34;5011373;28;20542;-89
2023/03/12 06:10:00;;;;;;;2.10;1.90;;;;;;;13.55;73.66;100674.75;5024742;28;20061;-88
2023/03/12 06:12:26;;;;;;;2.20;2.00;;;;;;;13.59;73.23;100688.06;5004621;28;20045;-88
2023/03/12 06:14:52;;;;;;;2.88;2.00;;;;;;;13.87;73.70;100739.03;5001197;28;20022;-90
2023/03/12 06:17:17;;;;;;;2.42;1.90;;;;;;;13.60;73.49;100710.81;5022530;28;20550;-85
2023/03/12 06:19:43;;;;;;;1.92;1.80;;;;;;;13.65;73.45;100726.75;5023568;28;20506;-88
2023/03/12 06:22:08;;;;;;;2.20;2.00;;;;;;;13.66;73.24;100718.06;5010436;28;20111;-86
2023/03/12 06:24:34;;;;;;;2.20;2.00;;;;;;;13.68;73.81;100736.50;5017437;28;20078;-87
2023/03/12 06:27:00;;;;;;;2.65;1.90;;;;;;;13.58;73.34;100730.84;5008276;28;20137;-85
2023/03/12 06:29:25;;;;;;;2.25;2.03;;;;;;;13.73;73.14;100764.69;5012287;28;20060;-87
2023/03/12 06:31:51;;;;;;;2.55;2.30;;;;;;;13.79;73.64;100782.44;4992674;28;20038;-87
2023/03/12 06:34:17;;;;;;;2.20;2.00;;;;;;;13.70;73.39;100775.09;5023018;28;20052;-86
2023/03/12 06:36:43;;;;;;;3.63;2.33;;;;;;;13.69;73.57;100785.50;5029392;28;20052;-88
2023/03/12 06:39:08;;;;;;;2.95;1.90;;;;;;;13.68;73.36;100786.34;5020087;28;20407;-89
2023/03/12 06:41:35;;;;;;;3.22;1.92;;;;;;;13.76;73.64;100801.59;4991684;28;20042;-89
2023/03/12 06:44:04;;;;;;;3.00;2.00;;;;;;;13.79;73.00;100790.31;5007778;28;20112;-89
2023/03/12 06:46:30;;;;;;;2.22;2.03;;;;;;;13.67;72.95;100776.69;5010649;28;20112;-89
2023/03/12 06:48:57;;;;;;;4.50;2.10;;;;;;;13.67;72.54;100789.78;4992985;28;20022;-91
2023/03/12 06:51:23;;;;;;;3.70;2.15;;;;;;;13.40;73.00;100758.97;5011634;28;20041;-87
2023/03/12 06:53:48;;;;;;;2.85;2.03;;;;;;;13.51;72.89;100783.91;5022573;28;20024;-87
2023/03/12 06:56:14;;;;;;;2.40;2.20;;;;;;;13.55;72.28;100790.19;5025784;28;20034;-88
2023/03/12 06:58:40;;;;;;;1.80;1.70;;;;;;;13.51;73.19;100783.03;5011202;28;20704;-89
2023/03/12 07:01:07;;;;;;;2.20;2.00;;;;;;;13.50;72.63;100807.44;5007959;28;20045;-88
2023/03/12 07:03:33;;;;;;;2.72;2.05;;;;;;;13.49;72.63;100805.66;5004794;28;20513;-88
2023/03/12 07:05:59;;;;;;;2.55;2.20;;;;;;;13.74;72.75;100832.13;5004857;28;20033;-88
2023/03/12 07:08:25;;;;;;;2.38;2.08;;;;;;;13.68;73.24;100823.97;5004505;28;20113;-87
2023/03/12 07:10:52;;;;;;;2.15;1.98;;;;;;;13.64;73.21;100838.69;5012494;28;20034;-87
2023/03/12 07:13:18;;;;;;;2.88;2.22;;;;;;;13.58;72.75;100833.19;5025858;28;20022;-88
2023/03/12 07:15:45;;;;;;;4.88;2.38;;;;;;;13.22;73.54;100764.28;5026416;28;20033;-87
2023/03/12 07:18:11;;;;;;;2.42;2.00;;;;;;;13.40;72.60;100804.44;5008467;28;20045;-88
2023/03/12 07:20:39;;;;;;;3.00;2.42;;;;;;;13.53;73.34;100826.84;5008962;28;20084;-88
2023/03/12 07:23:05;;;;;;;3.08;2.20;;;;;;;13.73;72.93;100860.91;5007321;28;20037;-86
2023/03/12 07:25:37;;;;;;;2.40;2.20;;;;;;;13.35;73.06;100805.94;5023715;28;20091;-87
2023/03/12 07:28:04;;;;;;;3.53;2.30;;;;;;;13.60;72.74;100863.00;4990109;28;20034;-87
2023/03/12 07:30:32;;;;;;;3.20;2.50;;;;;;;13.63;72.48;100868.41;5025372;28;20026;-87
2023/03/12 07:33:04;;;;;;;2.60;2.38;;;;;;;13.50;72.60;100831.06;5002116;28;20029;-89
2023/03/12 07:35:31;;;;;;;4.55;2.38;;;;;;;13.55;72.31;100848.81;5015827;28;20046;-87
2023/03/12 07:37:58;;;;;;;2.83;2.50;;;;;;;13.67;72.30;100877.28;4992270;28;20083;-86
2023/03/12 07:40:25;;;;;;;3.03;2.05;;;;;;;13.65;72.40;100878.94;5018535;28;20515;-87
2023/03/12 07:42:51;;;;;;;5.20;2.30;;;;;;;13.66;72.50;100877.25;5007232;28;20547;-86
2023/03/12 07:45:17;;;;;;;5.93;2.60;;;;;;;13.32;71.73;100828.56;5013283;28;20025;-86
2023/03/12 07:47:43;;;;;;;3.55;2.40;;;;;;;13.15;72.30;100802.44;4994475;28;20491;-87
2023/03/12 07:50:09;;;;;;;2.72;2.38;;;;;;;13.26;72.12;100817.75;5023165;28;20025;-87
2023/03/12 07:52:34;;;;;;;;;;;;;;;13.68;72.65;100886.06;4996171;28;20080;-87
2023/03/12 07:55:00;;;;;;;3.33;2.00;;;;;;;13.62;72.75;100884.06;5010695;28;19964;-89
2023/03/12 07:57:25;;;;;;;2.30;2.10;;;;;;;13.34;72.65;100838.28;5009626;28;20475;-86
2023/03/12 07:59:52;;;;;;;3.75;2.28;;;;;;;13.22;72.59;100824.56;5009105;28;20033;-89
2023/03/12 08:02:17;;;;;;;3.70;2.30;;;;;;;13.49;72.42;100881.75;5007931;28;20090;-88
2023/03/12 08:04:43;;;;;;;2.53;2.20;;;;;;;13.62;72.41;100891.94;5008378;28;20029;-89
2023/03/12 08:07:09;;;;;;;4.20;2.47;;;;;;;13.62;72.50;100900.69;5003355;28;20026;-87
2023/03/12 08:09:41;;;;;;;2.20;2.00;;;;;;;13.55;72.96;100875.03;5017595;28;20706;-89
2023/03/12 08:12:07;;;;;;;2.60;2.08;;;;;;;13.48;72.98;100869.44;4989152;28;20061;-88
2023/03/12 08:14:33;;;;;;;2.65;2.10;;;;;;;13.38;72.60;100861.19;5005640;28;20065;-86
2023/03/12 08:16:59;;;;;;;2.75;2.20;;;;;;;13.37;72.19;100871.59;5006296;28;20479;-87
2023/03/12 08:19:24;;;;;;;3.50;2.47;;;;;;;13.13;71.80;100829.44;4987215;28;20021;-87
2023/03/12 08:21:52;;;;;;;3.78;2.38;;;;;;;13.51;72.48;100898.47;5012380;28;20030;-87
2023/03/12 08:24:28;;;;;;;3.63;2.25;;;;;;;13.01;72.77;100803.53;4997189;28;20160;-88
2023/03/12 08:26:54;;;;;;;3.70;2.70;;;;;;;13.39;72.29;100883.06;5011666;28;20058;-88
2023/03/12 08:29:20;;;;;;;2.30;2.00;;;;;;;13.10;72.45;100837.13;5020268;28;20053;-89
2023/03/12 08:31:49;;;;;;;3.75;2.50;;;;;;;13.01;72.65;100819.28;5009440;28;20056;-89
2023/03/12 08:34:15;;;;;;;3.45;2.50;;;;;;;13.43;72.50;100893.75;4996291;28;20046;-87
2023/03/12 08:36:41;;;;;;;2.50;2.30;;;;;;;13.15;72.66;100852.25;4990659;28;20484;-87
2023/03/12 08:39:07;;;;;;;4.65;2.47;;;;;;;13.13;72.32;100846.06;5008246;28;20034;-87
2023/03/12 08:41:34;;;;;;;2.60;2.30;;;;;;;13.48;72.63;100901.81;5001256;28;20587;-89
2023/03/12 08:43:59;;;;;;;2.95;2.30;;;;;;;13.47;72.95;100909.66;5003129;28;20397;-88
2023/03/12 08:46:25;;;;;;;3.15;2.40;;;;;;;13.18;72.34;100869.84;5006749;28;20045;-89
2023/03/12 08:48:51;;;;;;;3.90;2.38;;;;;;;13.26;72.02;100896.44;5004570;28;20469;-89
2023/03/12 08:51:16;;;;;;;4.05;1.95;;;;;;;13.37;72.37;100917.09;5008078;28;20032;-88
2023/03/12 08:53:42;;;;;;;3.45;2.10;;;;;;;13.40;71.67;100926.84;5006242;28;20030;-89
2023/03/12 08:56:09;;;;;;;3.00;2.15;;;;;;;13.49;71.68;100935.09;5002006;28;20022;-89
2023/03/12 08:58:35;;;;;;;2.40;2.20;;;;;;;13.42;72.23;100927.81;4990265;28;20458;-87
2023/03/12 09:01:01;;;;;;;2.42;2.22;;;;;;;13.34;72.26;100911.72;5007244;28;20037;-89
2023/03/12 09:03:27;;;;;;;2.63;2.42;;;;;;;13.26;72.05;100905.19;4984222;28;20128;-88
2023/03/12 09:06:08;;;;;;;5.35;2.83;;;;;;;13.41;71.62;100950.50;5014618;28;20423;-87
2023/03/12 09:08:34;;;;;;;2.47;2.20;;;;;;;13.30;72.30;100929.88;5004594;28;20038;-87
2023/03/12 09:11:00;;;;;;;2.90;2.30;;;;;;;13.49;72.09;100953.47;4998406;28;20037;-91
2023/03/12 09:13:29;;;;;;;2.58;2.20;;;;;;;13.20;71.77;100910.16;5007605;28;20044;-89
2023/03/12 09:15:58;;;;;;;2.40;2.20;;;;;;;13.20;72.28;100913.66;5007581;28;20104;-89
2023/03/12 09:18:24;;;;;;;2.40;2.20;;;;;;;13.40;72.35;100946.09;5005899;28;20080;-89
2023/03/12 09:20:50;;;;;;;3.70;2.35;;;;;;;13.07;72.45;100898.22;4997812;28;20038;-89
2023/03/12 09:23:15;;;;;;;3.72;2.20;;;;;;;13.43;72.50;100953.19;5020154;28;20038;-89
2023/03/12 09:25:45;;;;;;;2.47;2.17;;;;;;;13.28;72.32;100923.63;5010630;28;20684;-91
2023/03/12 09:28:11;;;;;;;2.25;2.05;;;;;;;13.16;71.97;100910.84;5020101;28;20068;-90
2023/03/12 09:30:45;;;;;;;3.95;2.30;;;;;;;13.33;72.47;100941.38;5010667;28;20108;-89
2023/03/12 09:33:14;;;;;;;2.60;2.00;;;;;;;13.44;73.11;100969.00;5012285;28;20038;-90
2023/03/12 09:35:41;;;;;;;3.42;2.22;;;;;;;13.40;72.60;100968.81;5010500;28;20042;-90
2023/03/12 09:38:14;;;;;;;2.88;2.08;;;;;;;13.21;72.22;100931.22;5022620;28;20045;-90
2023/03/12 09:40:46;;;;;;;2.45;2.25;;;;;;;13.32;72.22;100955.34;5013774;28;20545;-90
2023/03/12 09:43:23;;;;;;;2.88;2.30;;;;;;;13.37;72.49;100980.03;5002707;28;20037;-89
2023/03/12 09:45:49;;;;;;;2.92;2.60;;;;;;;13.31;72.20;100963.13;4998632;28;20018;-86
2023/03/12 09:48:35;;;;;;;2.83;2.20;;;;;;;13.39;72.57;100974.88;5003144;28;20041;-89
2023/03/12 09:51:05;;;;;;;2.95;2.10;;;;;;;13.27;72.67;100962.06;4981184;28;20116;-88
2023/03/12 09:53:40;;;;;;;2.63;2.08;;;;;;;13.44;72.00;100994.34;5005314;28;20029;-88
2023/03/12 09:56:12;;;;;;;2.50;2.25;;;;;;;13.27;72.50;100967.31;4993287;28;20034;-88
2023/03/12 09:58:42;;;;;;;2.53;2.28;;;;;;;13.22;72.49;100960.94;5016134;28;20033;-89
2023/03/12 10:01:24;;;;;;;2.28;2.08;;;;;;;13.38;72.42;100994.97;5021773;28;20514;-90
2023/03/12 10:04:11;;;;;;;3.30;2.20;;;;;;;13.19;72.25;100971.31;5010957;28;20041;-88
2023/03/12 10:06:55;;;;;;;2.47;2.15;;;;;;;13.29;72.88;100991.00;5008168;28;20026;-89
2023/03/12 10:09:27;;;;;;;2.78;2.40;;;;;;;13.26;72.66;101004.84;5019420;28;20503;-89
2023/03/12 10:12:17;;;;;;;2.85;2.20;;;;;;;13.23;72.88;101008.22;4999973;28;20550;-88
2023/03/12 10:14:52;;;;;;;2.40;2.20;;;;;;;13.08;72.47;100985.59;5002619;28;20026;-88
2023/03/12 10:17:42;;;;;;;2.75;2.40;;;;;;;13.24;72.57;101014.34;5009936;28;20545;-87
2023/03/12 10:20:26;;;;;;;2.63;2.40;;;;;;;13.16;71.97;100989.50;5004864;28;20135;-87
2023/03/12 10:22:59;;;;;;;2.90;2.60;;;;;;;13.22;72.65;101034.38;4994043;28;20640;-86
2023/03/12 10:25:58;;;;;;;2.95;2.20;;;;;;;13.22;72.91;101035.25;5005622;28;20037;-87
2023/03/12 10:28:35;;;;;;;4.70;2.60;;;;;;;13.27;72.11;101032.88;5010049;28;20471;-88
2023/03/12 10:31:05;;;;;;;2.63;2.30;;;;;;;13.07;72.37;100986.44;5001298;28;20017;-87
2023/03/12 10:33:46;;;;;;;4.20;2.28;;;;;;;13.06;71.87;101000.38;5009354;28;20030;-88
2023/03/12 10:36:18;;;;;;;4.00;2.53;;;;;;;13.25;72.10;101042.41;5011519;28;20025;-90
2023/03/12 10:38:47;;;;;;;2.78;2.40;;;;;;;13.20;73.09;101039.53;4996943;28;20087;-90
2023/03/12 10:41:21;;;;;;;2.58;2.20;;;;;;;12.84;72.80;100965.28;5029162;28;20029;-88
2023/03/12 10:43:48;;;;;;;3.80;2.50;;;;;;;13.27;72.33;101040.75;5012864;28;20029;-87
2023/03/12 10:46:21;;;;;;;3.90;2.30;;;;;;;13.29;72.51;101031.22;4998154;28;20033;-87
2023/03/12 10:48:47;;;;;;;3.30;2.38;;;;;;;13.03;72.52;100994.16;5014813;28;20056;-89
2023/03/12 10:51:14;;;;;;;3.40;2.53;;;;;;;13.02;72.83;100997.63;5022434;28;20026;-90
2023/03/12 10:53:43;;;;;;;3.85;2.63;;;;;;;12.85;72.47;100974.94;5012429;28;20564;-89
2023/03/12 10:56:17;;;;;;;2.50;2.30;;;;;;;13.18;72.84;101035.94;4995123;28;20117;-88
2023/03/12 10:58:48;;;;;;;2.97;2.40;;;;;;;13.00;72.63;101001.00;4999520;28;20041;-90
2023/03/12 11:01:24;;;;;;;2.60;2.40;;;;;;;13.24;72.84;101040.59;4997564;28;20080;-88
2023/03/12 11:03:51;;;;;;;3.20;2.90;;;;;;;13.24;73.20;101040.59;5017289;28;20029;-88
2023/03/12 11:06:25;;;;;;;2.72;2.40;;;;;;;13.21;73.15;101043.97;4995195;28;20033;-87
2023/03/12 11:09:04;;;;;;;3.80;2.33;;;;;;;13.21;72.92;101037.84;4997309;28;20040;-87
2023/03/12 11:11:32;;;;;;;2.92;2.30;;;;;;;13.04;73.57;101021.28;5012308;28;20026;-86
2023/03/12 11:14:11;;;;;;;3.45;2.35;;;;;;;13.13;73.38;101036.56;5011195;28;20026;-88
2023/03/12 11:16:39;;;;;;;2.85;2.55;;;;;;;13.08;73.29;101020.63;5017168;28;20498;-87
2023/03/12 11:19:05;;;;;;;3.33;2.63;;;;;;;12.98;73.21;101002.66;5012161;28;20506;-87
2023/03/12 11:21:35;;;;;;;2.90;2.60;;;;;;;13.08;73.05;101018.00;5009297;28;20029;-88
2023/03/12 11:24:12;;;;;;;3.05;2.60;;;;;;;13.18;73.21;101042.91;5022213;28;20049;-87
2023/03/12 11:27:20;;;;;;;4.00;2.35;;;;;;;13.20;73.08;101034.28;5011238;28;20502;-88
2023/03/12 11:29:48;;;;;;;2.80;2.50;;;;;;;13.14;73.05;101033.09;5001986;28;20414;-87